createdAt,value
2019-03-27T00:01:46.546Z,67.50
2019-03-27T00:02:46.457Z,67.50
2019-03-27T00:03:46.387Z,67.50
2019-03-27T00:04:46.475Z,45.00
2019-03-27T00:05:46.427Z,180.00
2019-03-27T00:06:46.480Z,67.50
2019-03-27T00:07:46.473Z,67.50
2019-03-27T00:08:46.412Z,67.50
2019-03-27T00:09:46.422Z,270.00
2019-03-27T00:10:46.510Z,67.50
2019-03-27T00:11:46.493Z,90.00
2019-03-27T00:12:46.486Z,90.00
2019-03-27T00:13:46.441Z,112.50
2019-03-27T00:14:46.470Z,135.00
2019-03-27T00:15:46.326Z,112.50
2019-03-27T00:16:46.342Z,157.50
2019-03-27T00:17:46.400Z,157.50
2019-03-27T00:18:46.449Z,112.50
2019-03-27T00:19:46.354Z,67.50
2019-03-27T00:20:46.354Z,67.50
2019-03-27T00:21:46.394Z,90.00
2019-03-27T00:22:46.347Z,90.00
2019-03-27T00:23:46.432Z,45.00
2019-03-27T00:24:46.485Z,202.50
2019-03-27T00:25:46.427Z,315.00
2019-03-27T00:26:46.492Z,247.50
2019-03-27T00:27:46.419Z,292.50
2019-03-27T00:28:46.484Z,157.50
2019-03-27T00:29:46.489Z,112.50
2019-03-27T00:30:46.417Z,45.00
2019-03-27T00:31:46.487Z,67.50
2019-03-27T00:32:46.501Z,67.50
2019-03-27T00:33:46.498Z,45.00
2019-03-27T00:34:46.485Z,67.50
2019-03-27T00:35:46.492Z,67.50
2019-03-27T00:36:46.429Z,90.00
2019-03-27T00:37:46.496Z,247.50
2019-03-27T00:38:46.506Z,157.50
2019-03-27T00:39:46.421Z,157.50
2019-03-27T00:40:46.492Z,202.50
2019-03-27T00:41:46.492Z,202.50
2019-03-27T00:42:46.439Z,90.00
2019-03-27T00:43:46.503Z,90.00
2019-03-27T00:44:46.362Z,112.50
2019-03-27T00:45:46.365Z,337.50
2019-03-27T00:46:46.480Z,45.00
2019-03-27T00:47:46.483Z,45.00
2019-03-27T00:48:46.481Z,67.50
2019-03-27T00:49:46.486Z,270.00
2019-03-27T00:50:46.488Z,67.50
2019-03-27T00:51:46.486Z,90.00
2019-03-27T00:52:46.432Z,315.00
2019-03-27T00:53:46.461Z,202.50
2019-03-27T00:54:46.512Z,45.00
2019-03-27T00:55:46.503Z,45.00
2019-03-27T00:56:46.447Z,225.00
2019-03-27T00:57:46.504Z,90.00
2019-03-27T00:58:46.504Z,22.50
2019-03-27T00:59:46.450Z,22.50
2019-03-27T01:00:46.454Z,22.50
2019-03-27T01:01:46.435Z,22.50
2019-03-27T01:02:46.506Z,22.50
2019-03-27T01:03:46.442Z,22.50
2019-03-27T01:04:46.511Z,67.50
2019-03-27T01:05:46.458Z,292.50
2019-03-27T01:06:46.442Z,270.00
2019-03-27T01:07:46.511Z,315.00
2019-03-27T01:08:46.517Z,292.50
2019-03-27T01:09:46.459Z,270.00
2019-03-27T01:10:46.464Z,315.00
2019-03-27T01:11:46.457Z,247.50
2019-03-27T01:12:46.538Z,45.00
2019-03-27T01:13:46.543Z,157.50
2019-03-27T01:14:46.522Z,270.00
2019-03-27T01:15:46.463Z,157.50
2019-03-27T01:16:46.456Z,270.00
2019-03-27T01:17:46.459Z,247.50
2019-03-27T01:18:46.464Z,202.50
2019-03-27T01:19:46.520Z,180.00
2019-03-27T01:20:46.464Z,202.50
2019-03-27T01:21:46.470Z,247.50
2019-03-27T01:22:46.454Z,225.00
2019-03-27T01:23:46.524Z,202.50
2019-03-27T01:24:46.418Z,225.00
2019-03-27T01:25:46.475Z,135.00
2019-03-27T01:26:46.472Z,225.00
2019-03-27T01:27:46.540Z,315.00
2019-03-27T01:28:46.547Z,315.00
2019-03-27T01:29:46.469Z,180.00
2019-03-27T01:30:46.537Z,337.50
2019-03-27T01:31:46.556Z,292.50
2019-03-27T01:32:46.549Z,225.00
2019-03-27T01:33:46.496Z,225.00
2019-03-27T01:34:46.461Z,157.50
2019-03-27T01:35:46.542Z,135.00
2019-03-27T01:36:46.535Z,202.50
2019-03-27T01:37:46.478Z,67.50
2019-03-27T01:38:46.541Z,90.00
2019-03-27T01:39:46.535Z,112.50
2019-03-27T01:40:46.537Z,67.50
2019-03-27T01:41:46.479Z,22.50
2019-03-27T01:42:46.583Z,22.50
2019-03-27T01:43:46.475Z,45.00
2019-03-27T01:44:46.528Z,22.50
2019-03-27T01:45:52.928Z,180.00
2019-03-27T01:46:46.458Z,112.50
2019-03-27T01:47:46.434Z,180.00
2019-03-27T01:48:46.435Z,135.00
2019-03-27T01:49:46.480Z,22.50
2019-03-27T01:50:46.481Z,135.00
2019-03-27T01:51:46.434Z,45.00
2019-03-27T01:52:46.414Z,337.50
2019-03-27T01:53:46.468Z,22.50
2019-03-27T01:54:46.482Z,45.00
2019-03-27T01:55:46.476Z,337.50
2019-03-27T01:56:46.547Z,0.00
2019-03-27T01:57:46.547Z,157.50
2019-03-27T01:58:46.496Z,157.50
2019-03-27T01:59:46.498Z,202.50
2019-03-27T02:00:46.492Z,0.00
2019-03-27T02:01:46.553Z,0.00
2019-03-27T02:02:46.489Z,337.50
2019-03-27T02:03:46.545Z,292.50
2019-03-27T02:04:46.541Z,45.00
2019-03-27T02:05:46.482Z,202.50
2019-03-27T02:06:46.475Z,337.50
2019-03-27T02:07:46.543Z,180.00
2019-03-27T02:08:46.472Z,180.00
2019-03-27T02:09:46.473Z,225.00
2019-03-27T02:10:46.561Z,337.50
2019-03-27T02:11:46.479Z,67.50
2019-03-27T02:12:46.551Z,0.00
2019-03-27T02:13:46.512Z,0.00
2019-03-27T02:14:46.547Z,0.00
2019-03-27T02:15:46.462Z,337.50
2019-03-27T02:16:46.548Z,0.00
2019-03-27T02:17:46.512Z,22.50
2019-03-27T02:18:46.549Z,45.00
2019-03-27T02:19:46.503Z,45.00
2019-03-27T02:20:46.550Z,22.50
2019-03-27T02:21:46.549Z,315.00
2019-03-27T02:22:46.486Z,45.00
2019-03-27T02:23:46.438Z,22.50
2019-03-27T02:24:46.512Z,45.00
2019-03-27T02:25:46.505Z,135.00
2019-03-27T02:26:46.512Z,22.50
2019-03-27T02:27:46.496Z,22.50
2019-03-27T02:28:46.499Z,22.50
2019-03-27T02:29:46.571Z,22.50
2019-03-27T02:30:46.582Z,22.50
2019-03-27T02:31:46.563Z,45.00
2019-03-27T02:32:46.535Z,67.50
2019-03-27T02:33:46.508Z,22.50
2019-03-27T02:34:46.521Z,180.00
2019-03-27T02:35:46.528Z,157.50
2019-03-27T02:36:46.476Z,22.50
2019-03-27T02:37:46.541Z,0.00
2019-03-27T02:38:46.605Z,0.00
2019-03-27T02:39:46.516Z,22.50
2019-03-27T02:40:46.593Z,22.50
2019-03-27T02:41:46.592Z,22.50
2019-03-27T02:42:46.599Z,22.50
2019-03-27T02:43:46.554Z,45.00
2019-03-27T02:44:46.534Z,22.50
2019-03-27T02:45:46.514Z,22.50
2019-03-27T02:46:46.526Z,22.50
2019-03-27T02:47:46.526Z,22.50
2019-03-27T02:48:46.596Z,22.50
2019-03-27T02:49:46.544Z,22.50
2019-03-27T02:50:46.595Z,22.50
2019-03-27T02:51:46.528Z,45.00
2019-03-27T02:52:46.527Z,45.00
2019-03-27T02:53:46.591Z,22.50
2019-03-27T02:54:46.519Z,22.50
2019-03-27T02:55:46.469Z,67.50
2019-03-27T02:56:46.543Z,202.50
2019-03-27T02:57:46.491Z,180.00
2019-03-27T02:58:46.534Z,180.00
2019-03-27T02:59:46.576Z,157.50
2019-03-27T03:00:46.439Z,90.00
2019-03-27T03:01:48.172Z,90.00
2019-03-27T03:02:46.558Z,67.50
2019-03-27T03:03:46.493Z,22.50
2019-03-27T03:04:46.480Z,22.50
2019-03-27T03:05:46.774Z,315.00
2019-03-27T03:06:46.626Z,315.00
2019-03-27T03:07:46.559Z,292.50
2019-03-27T03:08:46.493Z,292.50
2019-03-27T03:09:46.555Z,270.00
2019-03-27T03:10:46.579Z,67.50
2019-03-27T03:11:46.549Z,22.50
2019-03-27T03:12:46.616Z,0.00
2019-03-27T03:13:46.594Z,22.50
2019-03-27T03:14:46.497Z,45.00
2019-03-27T03:15:46.563Z,22.50
2019-03-27T03:16:46.613Z,90.00
2019-03-27T03:17:46.583Z,22.50
2019-03-27T03:18:46.554Z,22.50
2019-03-27T03:19:46.557Z,90.00
2019-03-27T03:20:46.494Z,337.50
2019-03-27T03:21:46.556Z,247.50
2019-03-27T03:22:46.631Z,45.00
2019-03-27T03:23:46.565Z,45.00
2019-03-27T03:24:46.616Z,112.50
2019-03-27T03:25:46.553Z,90.00
2019-03-27T03:26:50.497Z,90.00
2019-03-27T03:27:46.610Z,270.00
2019-03-27T03:28:46.616Z,0.00
2019-03-27T03:29:46.545Z,45.00
2019-03-27T03:30:46.625Z,22.50
2019-03-27T03:31:46.626Z,22.50
2019-03-27T03:32:46.625Z,22.50
2019-03-27T03:33:46.616Z,45.00
2019-03-27T03:34:46.690Z,67.50
2019-03-27T03:35:46.597Z,45.00
2019-03-27T03:36:46.609Z,22.50
2019-03-27T03:37:46.585Z,315.00
2019-03-27T03:38:46.558Z,315.00
2019-03-27T03:39:46.606Z,180.00
2019-03-27T03:40:46.646Z,225.00
2019-03-27T03:41:46.599Z,45.00
2019-03-27T03:42:46.606Z,22.50
2019-03-27T03:43:46.589Z,22.50
2019-03-27T03:44:46.600Z,22.50
2019-03-27T03:45:46.574Z,22.50
2019-03-27T03:46:58.814Z,22.50
2019-03-27T03:47:46.635Z,22.50
2019-03-27T03:48:46.565Z,90.00
2019-03-27T03:49:46.518Z,0.00
2019-03-27T03:50:46.674Z,180.00
2019-03-27T03:51:46.636Z,67.50
2019-03-27T03:52:46.575Z,22.50
2019-03-27T03:53:46.646Z,45.00
2019-03-27T03:54:46.635Z,45.00
2019-03-27T03:55:46.666Z,112.50
2019-03-27T03:56:46.595Z,22.50
2019-03-27T03:57:46.828Z,22.50
2019-03-27T03:58:46.648Z,22.50
2019-03-27T03:59:46.584Z,180.00
2019-03-27T04:00:46.661Z,157.50
2019-03-27T04:01:46.587Z,135.00
2019-03-27T04:02:46.630Z,112.50
2019-03-27T04:03:46.588Z,112.50
2019-03-27T04:04:46.599Z,112.50
2019-03-27T04:05:46.642Z,225.00
2019-03-27T04:06:46.646Z,202.50
2019-03-27T04:07:46.534Z,180.00
2019-03-27T04:08:46.588Z,180.00
2019-03-27T04:09:46.673Z,180.00
2019-03-27T04:10:46.643Z,202.50
2019-03-27T04:11:46.572Z,202.50
2019-03-27T04:12:46.594Z,157.50
2019-03-27T04:13:46.647Z,112.50
2019-03-27T04:14:46.660Z,67.50
2019-03-27T04:15:46.597Z,135.00
2019-03-27T04:16:46.650Z,157.50
2019-03-27T04:17:46.659Z,90.00
2019-03-27T04:18:46.651Z,45.00
2019-03-27T04:19:46.591Z,45.00
2019-03-27T04:20:46.599Z,45.00
2019-03-27T04:21:46.657Z,45.00
2019-03-27T04:22:46.650Z,45.00
2019-03-27T04:23:46.657Z,45.00
2019-03-27T04:24:46.546Z,22.50
2019-03-27T04:26:07.926Z,0.00
2019-03-27T04:26:46.592Z,0.00
2019-03-27T04:27:46.585Z,292.50
2019-03-27T04:28:46.661Z,337.50
2019-03-27T04:29:46.628Z,90.00
2019-03-27T04:30:46.601Z,22.50
2019-03-27T04:31:46.586Z,45.00
2019-03-27T04:32:46.625Z,45.00
2019-03-27T04:33:46.658Z,45.00
2019-03-27T04:34:47.417Z,157.50
2019-03-27T04:35:46.725Z,180.00
2019-03-27T04:36:46.609Z,180.00
2019-03-27T04:37:46.594Z,157.50
2019-03-27T04:38:46.658Z,67.50
2019-03-27T04:39:46.662Z,67.50
2019-03-27T04:40:46.593Z,67.50
2019-03-27T04:41:46.606Z,22.50
2019-03-27T04:42:46.563Z,90.00
2019-03-27T04:43:46.595Z,0.00
2019-03-27T04:44:46.662Z,225.00
2019-03-27T04:45:46.585Z,202.50
2019-03-27T04:46:46.666Z,0.00
2019-03-27T04:47:46.592Z,157.50
2019-03-27T04:48:46.662Z,0.00
2019-03-27T04:49:46.590Z,22.50
2019-03-27T04:50:46.662Z,180.00
2019-03-27T04:51:46.658Z,180.00
2019-03-27T04:52:46.659Z,157.50
2019-03-27T04:53:46.597Z,112.50
2019-03-27T04:54:46.664Z,67.50
2019-03-27T04:55:46.618Z,135.00
2019-03-27T04:56:46.673Z,157.50
2019-03-27T04:57:46.632Z,157.50
2019-03-27T04:58:46.686Z,180.00
2019-03-27T04:59:46.688Z,157.50
2019-03-27T05:00:46.687Z,157.50
2019-03-27T05:01:46.606Z,157.50
2019-03-27T05:02:46.679Z,157.50
2019-03-27T05:03:46.694Z,90.00
2019-03-27T05:04:46.615Z,135.00
2019-03-27T05:05:46.670Z,157.50
2019-03-27T05:06:46.599Z,202.50
2019-03-27T05:07:46.598Z,202.50
2019-03-27T05:08:46.612Z,157.50
2019-03-27T05:09:46.613Z,180.00
2019-03-27T05:10:46.674Z,202.50
2019-03-27T05:11:46.613Z,157.50
2019-03-27T05:12:46.611Z,157.50
2019-03-27T05:13:46.676Z,67.50
2019-03-27T05:14:46.723Z,67.50
2019-03-27T05:15:46.689Z,67.50
2019-03-27T05:16:46.629Z,157.50
2019-03-27T05:17:46.758Z,135.00
2019-03-27T05:18:46.697Z,67.50
2019-03-27T05:19:46.641Z,45.00
2019-03-27T05:20:46.708Z,45.00
2019-03-27T05:21:46.643Z,45.00
2019-03-27T05:22:46.652Z,45.00
2019-03-27T05:23:46.705Z,45.00
2019-03-27T05:24:46.701Z,22.50
2019-03-27T05:25:46.638Z,22.50
2019-03-27T05:26:46.626Z,45.00
2019-03-27T05:27:46.692Z,292.50
2019-03-27T05:28:46.697Z,112.50
2019-03-27T05:29:46.693Z,157.50
2019-03-27T05:30:46.701Z,157.50
2019-03-27T05:31:46.633Z,157.50
2019-03-27T05:32:46.696Z,157.50
2019-03-27T05:33:46.629Z,180.00
2019-03-27T05:34:46.759Z,180.00
2019-03-27T05:35:46.701Z,180.00
2019-03-27T05:36:46.678Z,180.00
2019-03-27T05:37:46.700Z,202.50
2019-03-27T05:38:46.662Z,202.50
2019-03-27T05:39:46.705Z,180.00
2019-03-27T05:40:46.632Z,180.00
2019-03-27T05:41:46.665Z,202.50
2019-03-27T05:42:59.734Z,202.50
2019-03-27T05:43:46.633Z,202.50
2019-03-27T05:44:46.708Z,180.00
2019-03-27T05:45:46.643Z,180.00
2019-03-27T05:46:46.683Z,180.00
2019-03-27T05:47:58.958Z,225.00
2019-03-27T05:48:46.624Z,337.50
2019-03-27T05:49:46.639Z,202.50
2019-03-27T05:50:46.694Z,247.50
2019-03-27T05:51:46.611Z,247.50
2019-03-27T05:52:46.703Z,247.50
2019-03-27T05:53:46.695Z,180.00
2019-03-27T05:54:46.633Z,180.00
2019-03-27T05:55:46.707Z,180.00
2019-03-27T05:56:46.633Z,180.00
2019-03-27T05:57:46.641Z,157.50
2019-03-27T05:58:46.711Z,135.00
2019-03-27T05:59:46.711Z,157.50
2019-03-27T06:00:46.716Z,180.00
2019-03-27T06:01:46.635Z,157.50
2019-03-27T06:02:46.715Z,202.50
2019-03-27T06:03:46.722Z,292.50
2019-03-27T06:04:46.741Z,67.50
2019-03-27T06:05:46.640Z,112.50
2019-03-27T06:06:46.712Z,202.50
2019-03-27T06:07:46.650Z,45.00
2019-03-27T06:08:46.716Z,90.00
2019-03-27T06:09:46.648Z,180.00
2019-03-27T06:10:46.718Z,247.50
2019-03-27T06:11:46.658Z,225.00
2019-03-27T06:12:46.779Z,135.00
2019-03-27T06:13:46.716Z,45.00
2019-03-27T06:14:46.656Z,67.50
2019-03-27T06:15:46.720Z,202.50
2019-03-27T06:16:46.654Z,180.00
2019-03-27T06:17:46.720Z,202.50
2019-03-27T06:18:46.648Z,270.00
2019-03-27T06:19:46.722Z,337.50
2019-03-27T06:20:46.814Z,112.50
2019-03-27T06:21:46.648Z,67.50
2019-03-27T06:22:46.653Z,315.00
2019-03-27T06:23:46.725Z,270.00
2019-03-27T06:24:46.654Z,180.00
2019-03-27T06:25:46.741Z,157.50
2019-03-27T06:26:46.685Z,180.00
2019-03-27T06:27:46.662Z,180.00
2019-03-27T06:28:46.668Z,180.00
2019-03-27T06:29:46.664Z,180.00
2019-03-27T06:30:46.749Z,202.50
2019-03-27T06:31:46.667Z,202.50
2019-03-27T06:32:46.668Z,202.50
2019-03-27T06:33:46.739Z,202.50
2019-03-27T06:34:46.669Z,225.00
2019-03-27T06:35:46.719Z,180.00
2019-03-27T06:36:46.723Z,270.00
2019-03-27T06:37:46.733Z,315.00
2019-03-27T06:38:46.663Z,0.00
2019-03-27T06:39:46.613Z,0.00
2019-03-27T06:40:46.612Z,292.50
2019-03-27T06:41:46.730Z,180.00
2019-03-27T06:42:46.678Z,180.00
2019-03-27T06:43:46.724Z,112.50
2019-03-27T06:44:46.705Z,270.00
2019-03-27T06:45:46.682Z,247.50
2019-03-27T06:46:46.753Z,202.50
2019-03-27T06:47:46.688Z,180.00
2019-03-27T06:48:46.754Z,180.00
2019-03-27T06:49:46.690Z,157.50
2019-03-27T06:50:46.696Z,180.00
2019-03-27T06:51:46.683Z,202.50
2019-03-27T06:52:46.770Z,180.00
2019-03-27T06:53:46.758Z,180.00
2019-03-27T06:54:46.688Z,157.50
2019-03-27T06:55:46.698Z,180.00
2019-03-27T06:56:46.705Z,180.00
2019-03-27T06:57:46.672Z,180.00
2019-03-27T06:58:54.382Z,180.00
2019-03-27T06:59:46.688Z,180.00
2019-03-27T07:00:46.765Z,202.50
2019-03-27T07:01:46.703Z,202.50
2019-03-27T07:02:46.770Z,202.50
2019-03-27T07:03:46.702Z,202.50
2019-03-27T07:04:46.766Z,202.50
2019-03-27T07:05:46.678Z,202.50
2019-03-27T07:06:46.753Z,202.50
2019-03-27T07:07:46.797Z,225.00
2019-03-27T07:08:46.761Z,157.50
2019-03-27T07:09:46.733Z,202.50
2019-03-27T07:10:46.647Z,202.50
2019-03-27T07:11:46.686Z,202.50
2019-03-27T07:12:46.845Z,202.50
2019-03-27T07:13:46.760Z,292.50
2019-03-27T07:14:46.686Z,270.00
2019-03-27T07:15:46.741Z,292.50
2019-03-27T07:16:46.775Z,315.00
2019-03-27T07:17:46.707Z,270.00
2019-03-27T07:18:46.778Z,315.00
2019-03-27T07:19:46.715Z,270.00
2019-03-27T07:20:46.706Z,270.00
2019-03-27T07:21:46.781Z,247.50
2019-03-27T07:22:46.707Z,292.50
2019-03-27T07:23:46.708Z,157.50
2019-03-27T07:24:46.784Z,202.50
2019-03-27T07:25:46.781Z,270.00
2019-03-27T07:26:46.702Z,90.00
2019-03-27T07:27:46.705Z,135.00
2019-03-27T07:28:46.774Z,22.50
2019-03-27T07:29:46.773Z,202.50
2019-03-27T07:30:46.703Z,315.00
2019-03-27T07:31:46.773Z,292.50
2019-03-27T07:32:46.704Z,270.00
2019-03-27T07:33:46.774Z,292.50
2019-03-27T07:34:46.701Z,292.50
2019-03-27T07:35:46.735Z,225.00
2019-03-27T07:36:46.739Z,270.00
2019-03-27T07:37:46.785Z,292.50
2019-03-27T07:38:46.788Z,292.50
2019-03-27T07:39:46.789Z,112.50
2019-03-27T07:40:46.725Z,180.00
2019-03-27T07:41:46.807Z,180.00
2019-03-27T07:42:46.805Z,180.00
2019-03-27T07:43:46.723Z,292.50
2019-03-27T07:44:46.821Z,45.00
2019-03-27T07:45:46.729Z,90.00
2019-03-27T07:46:46.664Z,67.50
2019-03-27T07:47:48.210Z,112.50
2019-03-27T07:48:53.820Z,135.00
2019-03-27T07:49:46.689Z,90.00
2019-03-27T07:50:46.723Z,112.50
2019-03-27T07:51:46.769Z,112.50
2019-03-27T07:52:46.720Z,112.50
2019-03-27T07:53:46.702Z,135.00
2019-03-27T07:54:46.668Z,112.50
2019-03-27T07:55:46.727Z,112.50
2019-03-27T07:56:46.799Z,112.50
2019-03-27T07:57:46.731Z,90.00
2019-03-27T07:58:46.801Z,90.00
2019-03-27T07:59:46.871Z,90.00
2019-03-27T08:00:46.811Z,67.50
2019-03-27T08:01:46.736Z,67.50
2019-03-27T08:02:46.751Z,90.00
2019-03-27T08:03:46.737Z,45.00
2019-03-27T08:04:46.809Z,180.00
2019-03-27T08:05:46.655Z,112.50
2019-03-27T08:06:46.679Z,90.00
2019-03-27T08:07:46.651Z,180.00
2019-03-27T08:08:46.779Z,45.00
2019-03-27T08:09:46.723Z,135.00
2019-03-27T08:10:46.727Z,112.50
2019-03-27T08:11:46.684Z,67.50
2019-03-27T08:12:46.657Z,112.50
2019-03-27T08:13:46.735Z,112.50
2019-03-27T08:14:46.714Z,292.50
2019-03-27T08:15:46.754Z,180.00
2019-03-27T08:16:46.814Z,225.00
2019-03-27T08:17:46.748Z,247.50
2019-03-27T08:18:46.746Z,135.00
2019-03-27T08:19:46.824Z,270.00
2019-03-27T08:20:46.747Z,292.50
2019-03-27T08:21:46.819Z,157.50
2019-03-27T08:22:46.756Z,247.50
2019-03-27T08:23:46.822Z,270.00
2019-03-27T08:24:46.843Z,225.00
2019-03-27T08:25:46.748Z,202.50
2019-03-27T08:26:46.828Z,180.00
2019-03-27T08:27:46.830Z,180.00
2019-03-27T08:28:46.827Z,157.50
2019-03-27T08:29:46.831Z,180.00
2019-03-27T08:30:46.759Z,270.00
2019-03-27T08:31:46.824Z,270.00
2019-03-27T08:32:46.944Z,315.00
2019-03-27T08:33:46.825Z,292.50
2019-03-27T08:34:46.830Z,292.50
2019-03-27T08:35:46.807Z,292.50
2019-03-27T08:36:46.736Z,202.50
2019-03-27T08:37:46.785Z,202.50
2019-03-27T08:38:46.719Z,180.00
2019-03-27T08:39:46.821Z,225.00
2019-03-27T08:40:46.729Z,180.00
2019-03-27T08:41:46.760Z,157.50
2019-03-27T08:42:46.817Z,180.00
2019-03-27T08:43:46.817Z,157.50
2019-03-27T08:44:46.703Z,180.00
2019-03-27T08:45:46.725Z,157.50
2019-03-27T08:46:46.853Z,135.00
2019-03-27T08:47:46.840Z,112.50
2019-03-27T08:48:46.768Z,225.00
2019-03-27T08:49:46.837Z,180.00
2019-03-27T08:50:46.837Z,225.00
2019-03-27T08:51:46.846Z,225.00
2019-03-27T08:52:46.781Z,157.50
2019-03-27T08:53:46.770Z,180.00
2019-03-27T08:54:46.775Z,180.00
2019-03-27T08:55:46.733Z,202.50
2019-03-27T08:56:46.812Z,202.50
2019-03-27T08:57:46.776Z,270.00
2019-03-27T08:58:46.772Z,270.00
2019-03-27T08:59:46.781Z,270.00
2019-03-27T09:00:46.733Z,270.00
2019-03-27T09:01:46.788Z,202.50
2019-03-27T09:02:46.783Z,202.50
2019-03-27T09:03:46.775Z,225.00
2019-03-27T09:04:46.739Z,270.00
2019-03-27T09:05:46.781Z,270.00
2019-03-27T09:06:46.774Z,270.00
2019-03-27T09:07:46.823Z,270.00
2019-03-27T09:08:46.846Z,247.50
2019-03-27T09:09:46.772Z,292.50
2019-03-27T09:10:46.841Z,270.00
2019-03-27T09:11:46.833Z,225.00
2019-03-27T09:12:46.773Z,247.50
2019-03-27T09:13:46.753Z,270.00
2019-03-27T09:14:46.753Z,292.50
2019-03-27T09:15:46.794Z,270.00
2019-03-27T09:16:46.862Z,247.50
2019-03-27T09:17:46.860Z,270.00
2019-03-27T09:18:46.806Z,270.00
2019-03-27T09:19:46.790Z,247.50
2019-03-27T09:20:46.871Z,292.50
2019-03-27T09:21:46.862Z,180.00
2019-03-27T09:22:46.865Z,270.00
2019-03-27T09:23:46.809Z,270.00
2019-03-27T09:24:46.874Z,315.00
2019-03-27T09:25:46.863Z,270.00
2019-03-27T09:26:46.826Z,270.00
2019-03-27T09:27:46.869Z,270.00
2019-03-27T09:28:46.798Z,292.50
2019-03-27T09:29:46.858Z,270.00
2019-03-27T09:30:46.847Z,292.50
2019-03-27T09:31:46.867Z,270.00
2019-03-27T09:32:46.869Z,270.00
2019-03-27T09:33:46.870Z,292.50
2019-03-27T09:34:46.858Z,292.50
2019-03-27T09:35:46.828Z,270.00
2019-03-27T09:36:46.804Z,270.00
2019-03-27T09:37:46.869Z,270.00
2019-03-27T09:38:46.764Z,270.00
2019-03-27T09:39:46.873Z,292.50
2019-03-27T09:40:46.806Z,292.50
2019-03-27T09:41:46.803Z,270.00
2019-03-27T09:42:46.884Z,270.00
2019-03-27T09:43:46.876Z,292.50
2019-03-27T09:44:46.877Z,247.50
2019-03-27T09:45:46.828Z,247.50
2019-03-27T09:46:46.795Z,247.50
2019-03-27T09:47:46.868Z,292.50
2019-03-27T09:48:46.871Z,270.00
2019-03-27T09:49:49.954Z,292.50
2019-03-27T09:50:46.905Z,270.00
2019-03-27T09:51:46.806Z,270.00
2019-03-27T09:52:46.798Z,315.00
2019-03-27T09:53:46.801Z,270.00
2019-03-27T09:54:46.874Z,270.00
2019-03-27T09:55:46.801Z,202.50
2019-03-27T09:56:46.829Z,270.00
2019-03-27T09:57:46.818Z,292.50
2019-03-27T09:58:46.893Z,270.00
2019-03-27T09:59:46.887Z,292.50
2019-03-27T10:00:46.930Z,270.00
2019-03-27T10:01:46.832Z,270.00
2019-03-27T10:02:46.903Z,292.50
2019-03-27T10:03:46.854Z,270.00
2019-03-27T10:04:46.825Z,247.50
2019-03-27T10:05:46.892Z,270.00
2019-03-27T10:06:46.884Z,270.00
2019-03-27T10:07:46.816Z,270.00
2019-03-27T10:08:46.885Z,247.50
2019-03-27T10:09:50.121Z,270.00
2019-03-27T10:10:46.898Z,270.00
2019-03-27T10:11:46.812Z,270.00
2019-03-27T10:12:46.885Z,270.00
2019-03-27T10:13:46.827Z,292.50
2019-03-27T10:14:47.751Z,270.00
2019-03-27T10:15:46.915Z,270.00
2019-03-27T10:16:46.877Z,270.00
2019-03-27T10:17:46.788Z,270.00
2019-03-27T10:18:47.620Z,292.50
2019-03-27T10:19:46.820Z,270.00
2019-03-27T10:20:46.768Z,247.50
2019-03-27T10:21:46.802Z,270.00
2019-03-27T10:22:46.858Z,270.00
2019-03-27T10:23:46.808Z,270.00
2019-03-27T10:24:46.773Z,247.50
2019-03-27T10:25:46.927Z,247.50
2019-03-27T10:26:46.837Z,270.00
2019-03-27T10:27:46.907Z,292.50
2019-03-27T10:28:46.911Z,270.00
2019-03-27T10:29:46.918Z,247.50
2019-03-27T10:30:46.837Z,247.50
2019-03-27T10:31:46.842Z,292.50
2019-03-27T10:32:46.842Z,270.00
2019-03-27T10:33:46.912Z,292.50
2019-03-27T10:34:46.923Z,292.50
2019-03-27T10:35:46.846Z,270.00
2019-03-27T10:36:46.886Z,292.50
2019-03-27T10:37:46.881Z,292.50
2019-03-27T10:38:46.800Z,270.00
2019-03-27T10:39:46.906Z,292.50
2019-03-27T10:40:46.908Z,292.50
2019-03-27T10:41:46.810Z,292.50
2019-03-27T10:42:46.785Z,270.00
2019-03-27T10:43:46.815Z,270.00
2019-03-27T10:44:46.778Z,270.00
2019-03-27T10:45:46.840Z,270.00
2019-03-27T10:46:46.928Z,270.00
2019-03-27T10:47:46.879Z,270.00
2019-03-27T10:48:52.954Z,270.00
2019-03-27T10:49:46.914Z,270.00
2019-03-27T10:50:46.883Z,270.00
2019-03-27T10:51:46.877Z,270.00
2019-03-27T10:52:46.927Z,270.00
2019-03-27T10:53:46.931Z,292.50
2019-03-27T10:54:46.928Z,292.50
2019-03-27T10:55:46.983Z,292.50
2019-03-27T10:56:46.899Z,270.00
2019-03-27T10:57:46.785Z,270.00
2019-03-27T10:58:46.881Z,292.50
2019-03-27T10:59:46.787Z,270.00
2019-03-27T11:00:46.862Z,270.00
2019-03-27T11:01:46.908Z,247.50
2019-03-27T11:02:46.882Z,292.50
2019-03-27T11:03:46.847Z,270.00
2019-03-27T11:04:46.880Z,270.00
2019-03-27T11:05:46.886Z,270.00
2019-03-27T11:06:46.933Z,292.50
2019-03-27T11:07:46.860Z,292.50
2019-03-27T11:08:46.926Z,292.50
2019-03-27T11:09:46.929Z,292.50
2019-03-27T11:10:46.894Z,315.00
2019-03-27T11:11:46.940Z,292.50
2019-03-27T11:12:46.862Z,270.00
2019-03-27T11:13:46.933Z,292.50
2019-03-27T11:14:46.842Z,270.00
2019-03-27T11:15:46.977Z,270.00
2019-03-27T11:16:46.946Z,270.00
2019-03-27T11:17:46.882Z,270.00
2019-03-27T11:18:46.950Z,270.00
2019-03-27T11:19:46.876Z,270.00
2019-03-27T11:20:46.874Z,270.00
2019-03-27T11:21:46.954Z,270.00
2019-03-27T11:23:46.880Z,270.00
2019-03-27T11:24:46.982Z,270.00
2019-03-27T11:25:46.951Z,225.00
2019-03-27T11:26:46.850Z,292.50
2019-03-27T11:27:46.852Z,270.00
2019-03-27T11:28:46.867Z,270.00
2019-03-27T11:29:46.855Z,270.00
2019-03-27T11:30:48.568Z,292.50
2019-03-27T11:31:46.971Z,247.50
2019-03-27T11:32:46.939Z,202.50
2019-03-27T11:33:46.948Z,270.00
2019-03-27T11:34:46.873Z,270.00
2019-03-27T11:35:46.868Z,270.00
2019-03-27T11:36:46.827Z,270.00
2019-03-27T11:37:46.938Z,270.00
2019-03-27T11:38:46.862Z,270.00
2019-03-27T11:39:46.902Z,270.00
2019-03-27T11:40:46.952Z,270.00
2019-03-27T11:41:46.875Z,292.50
2019-03-27T11:42:46.921Z,270.00
2019-03-27T11:43:54.627Z,270.00
2019-03-27T11:44:46.959Z,292.50
2019-03-27T11:45:48.749Z,247.50
2019-03-27T11:46:46.924Z,270.00
2019-03-27T11:47:46.834Z,270.00
2019-03-27T11:48:46.961Z,292.50
2019-03-27T11:49:46.902Z,270.00
2019-03-27T11:50:46.842Z,292.50
2019-03-27T11:51:46.853Z,292.50
2019-03-27T11:52:46.957Z,270.00
2019-03-27T11:53:46.855Z,292.50
2019-03-27T11:54:46.832Z,225.00
2019-03-27T11:55:46.945Z,292.50
2019-03-27T11:56:47.014Z,292.50
2019-03-27T11:57:46.898Z,292.50
2019-03-27T11:58:46.902Z,292.50
2019-03-27T11:59:53.943Z,292.50
2019-03-27T12:00:54.386Z,270.00
2019-03-27T12:01:46.900Z,292.50
2019-03-27T12:02:46.973Z,270.00
2019-03-27T12:03:46.977Z,292.50
2019-03-27T12:04:46.979Z,292.50
2019-03-27T12:05:46.909Z,270.00
2019-03-27T12:06:46.983Z,292.50
2019-03-27T12:07:46.910Z,270.00
2019-03-27T12:08:46.907Z,270.00
2019-03-27T12:09:46.912Z,292.50
2019-03-27T12:10:46.976Z,270.00
2019-03-27T12:11:46.992Z,270.00
2019-03-27T12:12:48.327Z,270.00
2019-03-27T12:13:46.983Z,270.00
2019-03-27T12:14:46.983Z,292.50
2019-03-27T12:15:46.980Z,292.50
2019-03-27T12:16:49.843Z,270.00
2019-03-27T12:17:46.910Z,292.50
2019-03-27T12:18:46.902Z,292.50
2019-03-27T12:19:46.937Z,270.00
2019-03-27T12:20:58.322Z,247.50
2019-03-27T12:21:46.848Z,292.50
2019-03-27T12:22:57.301Z,270.00
2019-03-27T12:23:46.853Z,292.50
2019-03-27T12:24:46.907Z,270.00
2019-03-27T12:25:46.939Z,292.50
2019-03-27T12:26:46.934Z,292.50
2019-03-27T12:27:46.990Z,270.00
2019-03-27T12:28:47.001Z,247.50
2019-03-27T12:29:46.936Z,292.50
2019-03-27T12:30:46.961Z,225.00
2019-03-27T12:31:46.994Z,247.50
2019-03-27T12:32:46.993Z,247.50
2019-03-27T12:33:47.001Z,247.50
2019-03-27T12:34:47.001Z,247.50
2019-03-27T12:35:46.993Z,270.00
2019-03-27T12:36:46.953Z,270.00
2019-03-27T12:37:46.995Z,270.00